Delta, Utah Weather observations

Data are for observation ending at time listed.
 Day   Time    Ave.   Ave.  Ave.  Vector   Max.   Stn.    Total    Solar   Ave.  
  of    of     Air    Rel.  Wind   Wind    Wind   Baro.  Precip.   Rad.    Soil  
Year   Day     Temp.  Hum.  Speed  Dir.    Gust   Pres.                    Temp. 
2016   (MST)    F      %     mph   deg.    mph     mb.     in.     W/m2     F   
------------------------------------------------------------------------------
  41   19:00   19.2    83    2.1   241      2.8   872.7    0.00       0    32.3
  41   19:10   18.5    85    2.3   245      4.2   872.9    0.00       0    32.4
  41   19:20   18.0    85    2.1   248      3.3   872.9    0.00       0    32.5
  41   19:30   17.7    86    1.6   258      3.0   872.9    0.00       0    32.4
  41   19:40   17.7    86    1.2   242      2.0   873.0    0.00       0    32.4
  41   19:50   17.4    86    0.9   291      1.8   873.0    0.00       0    32.3
  41   20:00   16.7    86    0.3   324      1.6   873.0    0.00       0    32.5
  41   20:10   16.2    87    1.6   234      3.6   873.0    0.00       0    32.5
  41   20:20   15.3    88    1.4   246      2.8   873.1    0.00       0    32.2
  41   20:30   15.1    89    1.5   270      3.1   872.9    0.00       0    32.2
  41   20:40   14.9    90    1.5   240      2.7   872.8    0.00       0    32.2
  41   20:50   14.7    90    1.1   230      1.8   872.7    0.00       0    32.2
  41   21:00   14.5    90    0.2   256      0.9   872.8    0.00       0    32.2
  41   21:10   14.4    90    0.6   164      1.6   872.9    0.00       0    32.2
  41   21:20   14.1    90    0.1   161      1.1   873.0    0.00       0    32.3
  41   21:30   13.8    90    0.7     5      2.4   873.1    0.00       0    32.3
  41   21:40   13.3    90    1.4     7      2.3   873.1    0.00       0    32.2
  41   21:50   12.8    89    1.0     8      1.8   873.1    0.00       0    32.3
  41   22:00   12.8    89    0.9    12      1.5   873.1    0.00       0    32.3
  41   22:10   13.1    90    0.8     4      2.0   873.1    0.00       0    32.2
  41   22:20   13.3    90    0.9   240      2.0   873.2    0.00       0    32.2
  41   22:30   13.3    90    1.6   276      3.1   873.1    0.00       0    32.2
  41   22:40   13.0    89    1.5   252      2.7   873.2    0.00       0    32.3
  41   22:50   12.1    89    1.8   242      3.1   873.3    0.00       0    32.2
  41   23:00   11.8    89    1.2   227      2.6   873.3    0.00       0    32.3
  41   23:10   11.6    89    0.8   227      2.3   873.3    0.00       0    32.3
  41   23:20   11.5    89    1.3   196      2.3   873.3    0.00       0    32.4
  41   23:30   11.3    89    0.9   156      1.8   873.4    0.00       0    32.3
  41   23:40   11.4    89    0.5   171      2.0   873.3    0.00       0    32.1
  41   23:50   11.2    89    1.1   163      1.8   873.3    0.00       0    32.1
  42    0:00   11.0    88    0.8   166      1.5   873.3    0.00       0    32.1
  42    0:10   10.6    88    1.5   115      2.3   873.3    0.00       0    32.2
  42    0:20    9.8    88    1.6   118      2.5   873.3    0.00       0    32.2
  42    0:30    9.4    88    1.6   127      2.6   873.2    0.00       0    32.3
  42    0:40    9.2    88    1.6   121      2.9   873.2    0.00       0    32.2
  42    0:50    9.2    88    0.8   134      1.7   873.2    0.00       0    32.3
  42    1:00    9.6    88    0.3   136      1.2   873.2    0.00       0    32.4
  42    1:10    9.9    88    0.8    57      1.5   873.3    0.00       1    32.3
  42    1:20   10.3    88    0.8    70      1.8   873.2    0.00       0    32.2
  42    1:30   10.7    88    0.7    84      1.5   873.1    0.00       0    32.3
  42    1:40   10.6    88    1.4    85      2.3   873.1    0.00       0    32.3
  42    1:50   10.1    88    1.0    74      2.2   873.2    0.00       0    32.4
  42    2:00    9.9    88    1.1    68      1.8   873.0    0.00       0    32.3
  42    2:10    9.9    88    0.9    70      2.0   873.0    0.00       0    32.1
  42    2:20   10.1    88    0.3    97      1.3   873.0    0.00       0    32.3
  42    2:30   10.4    88    0.4    89      1.2   873.0    0.00       0    32.3
  42    2:40   10.7    88    0.3    68      1.0   873.0    0.00       0    32.3
  42    2:50   11.0    88    0.0     0      0.0   873.1    0.00       0    32.2
  42    3:00   11.3    88    0.5    34      1.2   873.0    0.00       0    32.2
  42    3:10   11.4    88    1.2   126      2.5   872.7    0.00       0    32.2
  42    3:20   11.3    88    0.0   149      0.7   872.9    0.00       0    32.3
  42    3:30   11.6    89    0.3   272      1.4   873.0    0.00       0    32.2
  42    3:40   11.7    89    0.3   239      1.2   872.8    0.00       0    32.2
  42    3:50   11.7    89    0.0   239      0.4   872.6    0.00       0    32.3
  42    4:00   11.9    89    0.7   230      1.2   872.7    0.00       0    32.1
  42    4:10   11.8    89    1.3   234      2.0   872.8    0.00       0    32.1
  42    4:20   11.8    89    0.5   212      1.5   872.6    0.00       0    32.1
  42    4:30   11.7    89    0.9   156      1.5   872.6    0.00       0    32.2
  42    4:40   11.7    89    0.6   139      1.2   872.7    0.00       0    32.2
  42    4:50   11.7    89    1.4   160      2.0   872.7    0.00       0    32.2
  42    5:00   11.5    89    1.5   156      2.6   872.6    0.00       0    32.3
  42    5:10   11.3    88    1.7   160      2.4   872.7    0.00       0    32.2
  42    5:20   10.8    88    1.4   158      2.4   872.8    0.00       0    32.3
  42    5:30   10.5    88    1.4   160      2.6   872.8    0.00       0    32.3
  42    5:40   10.3    88    1.2   151      2.1   872.9    0.00       0    32.2
  42    5:50   10.3    88    1.3   150      2.0   872.8    0.00       0    32.4
  42    6:00   10.2    88    1.1   138      1.8   873.0    0.00       0    32.3
  42    6:10   10.2    88    1.0   129      1.6   873.2    0.00       0    32.3
  42    6:20   10.1    88    1.3   140      2.0   873.2    0.00       0    32.3
  42    6:30   10.1    88    1.5   128      2.1   873.3    0.00       0    32.2
  42    6:40   10.0    88    1.5   120      2.4   873.4    0.00       0    32.4
  42    6:50    9.7    88    1.5   136      2.3   873.6    0.00       0    32.3
  42    7:00    9.7    88    1.7   147      2.5   873.6    0.00       0    32.3
  42    7:10    9.7    88    2.0   140      3.7   873.6    0.00       0    32.2
  42    7:20    9.7    88    2.3   147      3.2   873.7    0.00       1    32.3
  42    7:30    9.8    88    2.3   141      3.5   873.9    0.00       3    32.3
  42    7:40   10.2    88    2.2   146      3.4   873.9    0.00       3    32.3
  42    7:50   10.1    88    2.5   153      4.1   873.9    0.00      10    32.2
  42    8:00   10.4    88    2.1   160      3.2   874.0    0.00      15    32.2
  42    8:10   10.7    88    2.2   174      3.6   874.0    0.00      22    32.2
  42    8:20   10.9    88    2.1   170      3.5   874.1    0.00      29    32.4
  42    8:30   11.2    89    1.9   172      3.0   874.2    0.00      31    32.2
  42    8:40   11.5    88    2.0   183      3.5   874.2    0.00      48    32.1
  42    8:50   11.6    89    1.6   175      3.1   874.3    0.00      51    32.3
  42    9:00   12.0    89    1.6   189      3.1   874.4    0.00      55    32.2
  42    9:10   12.4    89    1.6   190      2.7   874.4    0.00      60    32.2
  42    9:20   12.8    89    1.6   146      3.1   874.3    0.00      81    32.2
  42    9:30   13.3    88    1.5   145      2.9   874.3    0.00     101    32.1
  42    9:40   13.9    89    1.1   165      2.1   874.4    0.00     115    32.2
  42    9:50   14.2    89    1.1   173      2.3   874.5    0.00     127    32.3
  42   10:00   14.5    89    0.9   195      2.0   874.5    0.00     142    32.2
  42   10:10   15.6    89    1.1   141      2.2   874.5    0.00     152    32.1
  42   10:20   15.7    89    1.5   157      2.3   874.6    0.00     162    32.2
  42   10:30   15.8    90    1.4   154      2.2   874.5    0.00     169    32.3
  42   10:40   16.7    89    1.3   159      2.4   874.4    0.00     178    32.2
  42   10:50   16.7    90    1.3   199      2.9   874.4    0.00     184    32.3
  42   11:00   16.8    90    2.0   178      3.5   874.3    0.00     199    32.3
  42   11:10   17.2    90    1.6   163      3.1   874.2    0.00     220    32.3
  42   11:20   18.0    89    2.0   138      3.7   874.2    0.00     229    32.3
  42   11:30   18.0    89    2.1   176      3.7   874.2    0.00     229    32.2
  42   11:40   18.6    90    1.3   154      3.2   874.1    0.00     235    32.3
  42   11:50   19.8    89    1.1   175      3.4   874.0    0.00     245    32.3
  42   12:00   19.6    90    1.7   150      3.9   873.8    0.00     251    32.3
  42   12:10   20.4    89    1.6   131      3.3   873.7    0.00     255    32.4
  42   12:20   20.5    89    2.0   142      4.5   873.5    0.00     264    32.4
  42   12:30   20.2    89    1.5   166      3.3   873.4    0.00     279    32.4
  42   12:40   20.6    89    1.9   145      4.2   873.3    0.00     293    32.4
  42   12:50   20.7    89    1.7   190      3.7   873.1    0.00     305    32.5
  42   13:00   20.6    89    2.2   170      3.8   873.0    0.00     323    32.4
  42   13:10   20.6    89    2.4   162      4.8   872.9    0.00     330    32.4
  42   13:20   21.1    89    2.0   167      4.2   872.8    0.00     310    32.5
  42   13:30   21.3    89    1.7   163      4.4   872.7    0.00     304    32.4
  42   13:40   21.9    89    1.2   156      2.8   872.6    0.00     309    32.4
  42   13:50   23.9    88    0.9   149      2.5   872.4    0.00     331    32.3
  42   14:00   24.5    87    0.9   159      2.9   872.3    0.00     326    32.4
  42   14:10   23.0    88    1.9   251      4.0   872.1    0.01     400    32.3
  42   14:20   22.5    88    2.1   258      4.4   872.0    0.00     412    32.3
  42   14:30   22.7    88    2.0   272      4.2   872.0    0.00     314    32.4
  42   14:40   22.6    88    2.5   248      3.7   872.0    0.00     216    32.4
  42   14:50   23.1    87    3.1   286      5.6   871.9    0.00     186    32.4
  42   15:00   23.1    86    3.3   292      5.5   871.9    0.00     145    32.5
  42   15:10   23.8    86    2.2   356      4.5   871.7    0.00     143    32.4
  42   15:20   24.0    84    1.8     8      4.0   871.5    0.00     150    32.4
  42   15:30   24.2    84    2.5   336      4.2   871.6    0.00     129    32.3
  42   15:40   24.3    83    3.4   310      6.4   871.7    0.00     111    32.2
  42   15:50   24.1    83    2.9   303      5.4   871.8    0.00     112    32.4
  42   16:00   24.2    82    3.0   304      4.8   871.9    0.00     185    32.3
  42   16:10   23.8    82    3.3   313      6.0   872.0    0.00     157    32.4
  42   16:20   24.0    82    2.5   297      5.0   872.0    0.00     149    32.4
  42   16:30   24.4    81    3.1   279      6.1   872.1    0.00     141    32.3
  42   16:40   23.6    82    3.1   279      5.7   872.2    0.00     128    32.5
  42   16:50   23.6    82    2.9   287      6.4   872.2    0.00     104    32.5
  42   17:00   23.4    82    2.4   277      3.8   872.1    0.00      91    32.4
  42   17:10   22.9    83    3.0   269      5.3   872.1    0.00      77    32.4
  42   17:20   22.4    85    2.8   271      4.7   872.0    0.00      35    32.5
  42   17:30   21.5    87    2.6   254      3.7   872.2    0.00      14    32.5
  42   17:40   21.3    88    3.0   274      6.0   872.3    0.00       9    32.4
  42   17:50   21.4    90    3.0   283      4.7   872.3    0.00       6    32.4
  42   18:00   21.5    90    3.0   279      5.7   872.4    0.00       5    32.4
  42   18:10   21.7    90    2.3   291      4.5   872.5    0.00       0    32.3
  42   18:20   21.7    91    2.1   334      4.2   872.4    0.00       0    32.2
  42   18:30   21.3    91    1.5     4      3.9   872.4    0.00       0    32.3
  42   18:40   21.3    92    1.5   339      2.9   872.5    0.00       0    32.4
  42   18:50   21.5    92    1.4   311      3.1   872.7    0.00       0    32.2

Return to Delta, Utah graphs page.


Western Regional Climate Center,wrcc@dri.edu